Zenith Gold — 3EWJ4 — position and weather

sailwx.info

Track history (hours):
 
Tides and Currents Weather Stations Pressure Air Temp Water Temp Dewpoint Dewpoint Depression Visibility Wind Speed Wind Dir Waves Ship Positions

Zenith Gold

Last reported at 2018-May-31 16:44 UTC. Time now 2018-Jun-19 12:23 UTC.
Position N 34°24' E 134°13'.
Warning: this ship's position is 18 days out of date.

Length 85 m; draft 5.7 m.

Type: Cargo ship. MMSI: 370645000.

Date/timePositionNaut miles runAvg speedWind from/ knotsBaromVisibWave heightAir tempDewpointWater temp
2018-May-31 16:44N 34°24' E 134°13'2 8.9
2018-May-31 16:30N 34°24' E 134°16'5 9.6
2018-May-31 15:58N 34°22' E 134°21'510.1
2018-May-31 15:31N 34°20' E 134°26'510.2
2018-May-31 15:00N 34°18' E 134°32'7 9.6
2018-May-31 14:20N 34°15' E 134°39'3 9.3
2018-May-31 14:00N 34°12' E 134°41'510.0
2018-May-31 13:28N 34°07' E 134°44'510.0
2018-May-31 12:59N 34°04' E 134°48'510.0
2018-May-31 12:30N 34°00' E 134°52'510.2
2018-May-31 12:00N 33°56' E 134°56'510.6
2018-May-31 11:30N 33°52' E 134°60'611.1
2018-May-31 10:57N 33°48' E 135°04'253 9.3
2018-May-30 07:43N 34°55' E 139°59'  
Track history (hours):
 
Tides and Currents Weather Stations Pressure Air Temp Water Temp Dewpoint Dewpoint Depression Visibility Wind Speed Wind Dir Waves Ship Positions

Zenith Gold

Last reported at 2018-May-31 16:44 UTC. Time now 2018-Jun-19 12:23 UTC.
Position N 34°24' E 134°13'.
Warning: this ship's position is 18 days out of date.

Length 85 m; draft 5.7 m.

Type: Cargo ship. MMSI: 370645000.

Date/timePositionNaut miles runAvg speedWind from/ knotsBaromVisibWave heightAir tempDewpointWater temp
2018-May-31 16:44N 34°24' E 134°13'2 8.9
2018-May-31 16:30N 34°24' E 134°16'5 9.6
2018-May-31 15:58N 34°22' E 134°21'510.1
2018-May-31 15:31N 34°20' E 134°26'510.2
2018-May-31 15:00N 34°18' E 134°32'7 9.6
2018-May-31 14:20N 34°15' E 134°39'3 9.3
2018-May-31 14:00N 34°12' E 134°41'510.0
2018-May-31 13:28N 34°07' E 134°44'510.0
2018-May-31 12:59N 34°04' E 134°48'510.0
2018-May-31 12:30N 34°00' E 134°52'510.2
2018-May-31 12:00N 33°56' E 134°56'510.6
2018-May-31 11:30N 33°52' E 134°60'611.1
2018-May-31 10:57N 33°48' E 135°04'253 9.3
2018-May-30 07:43N 34°55' E 139°59'  

Dump ship's entire track history